aviador You're here:

KWLD Decoded Metar

WINFIELD/ARKANSA in KS, USA
Report Time2017-05-26 12:54:00
UTC Time2017-05-26 13:10:25
Flight Rules vfr VFR
Wind090° at 06 kt
W.Decomp.*RWY 13: 4.2 kt HW 4.3 kt LCW
RWY 17: 0.4 kt HW 6 kt LCW
W.Rank090° ranks 18
Current wind is above 090° avg. (5.8)
Visibility9999 m
Phenomena:N/A
Clouds:N/A
Expected CloudBase > 1,600 ft AGL from Temp-Dew spread
CeilingNone
Temp20°C (ISA +7)
Dew Point16°C (78% RH)
AAT19.8°C
QNH1004 hPa
Density Alt2,549 ft
Elevation1,148 ft
Report Wrong Elevation
Raw Report
KWLD 261254Z AUTO 09006KT 10SM CLR 20/16 A2966 RMK AO2 SLP034
T02000161=

Extra information for KWLD:More info

Metar Taf Metar & Taf Last 4 Metars F.Rules Stats Wind Profile Meteogram Temp Stats Airport Information Weather charts Add Link Nearby VenuesMetar ALERT Operation Metar Decoded Social comments

AIRNAV info for KWLD